sensor_id;sensor_type;location;lat;lon;timestamp;P1;durP1;ratioP1;P2;durP2;ratioP2
27728;SDS011;15126;42.186;24.340;2023-04-08T00:00:27;25.90;;;17.73;;
27728;SDS011;15126;42.186;24.340;2023-04-08T00:02:53;19.57;;;17.83;;
27728;SDS011;15126;42.186;24.340;2023-04-08T00:05:20;18.63;;;16.73;;
27728;SDS011;15126;42.186;24.340;2023-04-08T00:07:49;19.83;;;17.67;;
27728;SDS011;15126;42.186;24.340;2023-04-08T00:10:15;17.87;;;15.97;;
27728;SDS011;15126;42.186;24.340;2023-04-08T00:12:42;18.50;;;16.57;;
27728;SDS011;15126;42.186;24.340;2023-04-08T00:15:09;18.37;;;15.87;;
27728;SDS011;15126;42.186;24.340;2023-04-08T00:17:36;18.63;;;16.70;;
27728;SDS011;15126;42.186;24.340;2023-04-08T00:20:03;17.53;;;15.83;;
27728;SDS011;15126;42.186;24.340;2023-04-08T00:22:31;15.93;;;14.33;;
27728;SDS011;15126;42.186;24.340;2023-04-08T00:24:59;16.20;;;14.50;;
27728;SDS011;15126;42.186;24.340;2023-04-08T00:27:26;15.27;;;13.73;;
27728;SDS011;15126;42.186;24.340;2023-04-08T00:29:52;16.43;;;14.87;;
27728;SDS011;15126;42.186;24.340;2023-04-08T00:32:19;16.37;;;14.77;;
27728;SDS011;15126;42.186;24.340;2023-04-08T00:34:46;16.50;;;14.73;;
27728;SDS011;15126;42.186;24.340;2023-04-08T00:37:13;15.10;;;13.77;;
27728;SDS011;15126;42.186;24.340;2023-04-08T00:39:40;16.43;;;14.23;;
27728;SDS011;15126;42.186;24.340;2023-04-08T00:42:08;15.80;;;14.30;;
27728;SDS011;15126;42.186;24.340;2023-04-08T00:44:35;13.67;;;12.47;;
27728;SDS011;15126;42.186;24.340;2023-04-08T00:47:02;15.80;;;14.13;;
27728;SDS011;15126;42.186;24.340;2023-04-08T00:49:30;15.03;;;13.50;;
27728;SDS011;15126;42.186;24.340;2023-04-08T00:51:57;16.37;;;14.83;;
27728;SDS011;15126;42.186;24.340;2023-04-08T00:54:24;16.30;;;14.67;;
27728;SDS011;15126;42.186;24.340;2023-04-08T00:56:51;17.90;;;14.93;;
27728;SDS011;15126;42.186;24.340;2023-04-08T00:59:19;15.13;;;13.63;;
27728;SDS011;15126;42.186;24.340;2023-04-08T01:01:48;16.17;;;14.57;;
27728;SDS011;15126;42.186;24.340;2023-04-08T01:04:24;15.63;;;14.13;;
27728;SDS011;15126;42.186;24.340;2023-04-08T01:06:56;16.90;;;15.50;;
27728;SDS011;15126;42.186;24.340;2023-04-08T01:09:29;17.37;;;15.63;;
27728;SDS011;15126;42.186;24.340;2023-04-08T01:11:58;15.77;;;14.17;;
27728;SDS011;15126;42.186;24.340;2023-04-08T01:14:32;21.40;;;14.10;;
27728;SDS011;15126;42.186;24.340;2023-04-08T01:17:04;16.00;;;14.37;;
27728;SDS011;15126;42.186;24.340;2023-04-08T01:19:32;17.50;;;14.30;;
27728;SDS011;15126;42.186;24.340;2023-04-08T01:22:02;16.03;;;14.53;;
27728;SDS011;15126;42.186;24.340;2023-04-08T01:24:38;16.43;;;14.70;;
27728;SDS011;15126;42.186;24.340;2023-04-08T01:27:09;15.43;;;14.03;;
27728;SDS011;15126;42.186;24.340;2023-04-08T01:29:39;16.43;;;14.73;;
27728;SDS011;15126;42.186;24.340;2023-04-08T01:32:08;17.87;;;16.17;;
27728;SDS011;15126;42.186;24.340;2023-04-08T01:34:36;19.37;;;17.47;;
27728;SDS011;15126;42.186;24.340;2023-04-08T01:37:05;19.33;;;17.50;;
27728;SDS011;15126;42.186;24.340;2023-04-08T01:39:33;18.87;;;17.00;;
27728;SDS011;15126;42.186;24.340;2023-04-08T01:42:01;17.93;;;16.13;;
27728;SDS011;15126;42.186;24.340;2023-04-08T01:44:29;18.33;;;16.53;;
27728;SDS011;15126;42.186;24.340;2023-04-08T01:46:58;17.77;;;16.07;;
27728;SDS011;15126;42.186;24.340;2023-04-08T01:49:25;17.93;;;16.03;;
27728;SDS011;15126;42.186;24.340;2023-04-08T01:51:52;17.27;;;15.77;;
27728;SDS011;15126;42.186;24.340;2023-04-08T01:54:22;18.33;;;16.63;;
27728;SDS011;15126;42.186;24.340;2023-04-08T01:56:49;19.17;;;17.40;;
27728;SDS011;15126;42.186;24.340;2023-04-08T01:59:18;19.47;;;17.57;;
27728;SDS011;15126;42.186;24.340;2023-04-08T02:01:48;17.47;;;15.77;;
27728;SDS011;15126;42.186;24.340;2023-04-08T02:04:17;19.37;;;17.50;;
27728;SDS011;15126;42.186;24.340;2023-04-08T02:06:44;18.57;;;16.77;;
27728;SDS011;15126;42.186;24.340;2023-04-08T02:09:11;19.33;;;17.47;;
27728;SDS011;15126;42.186;24.340;2023-04-08T02:11:37;19.53;;;17.63;;
27728;SDS011;15126;42.186;24.340;2023-04-08T02:14:04;20.97;;;17.53;;
27728;SDS011;15126;42.186;24.340;2023-04-08T02:16:33;17.70;;;16.00;;
27728;SDS011;15126;42.186;24.340;2023-04-08T02:19:09;19.30;;;17.40;;
27728;SDS011;15126;42.186;24.340;2023-04-08T02:21:41;20.10;;;18.07;;
27728;SDS011;15126;42.186;24.340;2023-04-08T02:24:11;20.03;;;18.03;;
27728;SDS011;15126;42.186;24.340;2023-04-08T02:26:39;19.53;;;17.73;;
27728;SDS011;15126;42.186;24.340;2023-04-08T02:29:10;18.23;;;16.33;;
27728;SDS011;15126;42.186;24.340;2023-04-08T02:31:38;20.07;;;16.60;;
27728;SDS011;15126;42.186;24.340;2023-04-08T02:34:08;22.90;;;15.97;;
27728;SDS011;15126;42.186;24.340;2023-04-08T02:36:36;19.40;;;17.33;;
27728;SDS011;15126;42.186;24.340;2023-04-08T02:39:05;17.40;;;15.63;;
27728;SDS011;15126;42.186;24.340;2023-04-08T02:41:32;20.20;;;18.10;;
27728;SDS011;15126;42.186;24.340;2023-04-08T02:43:59;21.00;;;17.60;;
27728;SDS011;15126;42.186;24.340;2023-04-08T02:46:25;20.87;;;18.07;;
27728;SDS011;15126;42.186;24.340;2023-04-08T02:48:52;26.23;;;19.17;;
27728;SDS011;15126;42.186;24.340;2023-04-08T02:51:20;19.73;;;17.77;;
27728;SDS011;15126;42.186;24.340;2023-04-08T02:53:47;22.03;;;19.83;;
27728;SDS011;15126;42.186;24.340;2023-04-08T02:56:14;21.83;;;19.87;;
27728;SDS011;15126;42.186;24.340;2023-04-08T02:58:41;25.10;;;22.50;;
27728;SDS011;15126;42.186;24.340;2023-04-08T03:01:08;29.23;;;23.93;;
27728;SDS011;15126;42.186;24.340;2023-04-08T03:03:34;31.57;;;27.73;;
27728;SDS011;15126;42.186;24.340;2023-04-08T03:06:01;30.37;;;26.83;;
27728;SDS011;15126;42.186;24.340;2023-04-08T03:08:30;27.70;;;24.03;;
27728;SDS011;15126;42.186;24.340;2023-04-08T03:10:57;27.20;;;24.57;;
27728;SDS011;15126;42.186;24.340;2023-04-08T03:13:24;28.67;;;21.40;;
27728;SDS011;15126;42.186;24.340;2023-04-08T03:15:51;24.00;;;21.60;;
27728;SDS011;15126;42.186;24.340;2023-04-08T03:18:18;25.30;;;22.83;;
27728;SDS011;15126;42.186;24.340;2023-04-08T03:20:45;23.50;;;20.93;;
27728;SDS011;15126;42.186;24.340;2023-04-08T03:23:12;23.00;;;20.80;;
27728;SDS011;15126;42.186;24.340;2023-04-08T03:25:40;22.87;;;19.90;;
27728;SDS011;15126;42.186;24.340;2023-04-08T03:28:07;23.17;;;20.73;;
27728;SDS011;15126;42.186;24.340;2023-04-08T03:30:34;23.67;;;21.17;;
27728;SDS011;15126;42.186;24.340;2023-04-08T03:33:00;24.37;;;22.07;;
27728;SDS011;15126;42.186;24.340;2023-04-08T03:35:29;25.30;;;22.70;;
27728;SDS011;15126;42.186;24.340;2023-04-08T03:37:57;25.10;;;22.53;;
27728;SDS011;15126;42.186;24.340;2023-04-08T03:40:23;25.10;;;22.50;;
27728;SDS011;15126;42.186;24.340;2023-04-08T03:42:52;26.87;;;24.03;;
27728;SDS011;15126;42.186;24.340;2023-04-08T03:45:18;25.60;;;23.20;;
27728;SDS011;15126;42.186;24.340;2023-04-08T03:47:45;25.67;;;23.13;;
27728;SDS011;15126;42.186;24.340;2023-04-08T03:50:12;25.13;;;22.67;;
27728;SDS011;15126;42.186;24.340;2023-04-08T03:52:39;25.90;;;23.23;;
27728;SDS011;15126;42.186;24.340;2023-04-08T03:55:06;31.37;;;25.07;;
27728;SDS011;15126;42.186;24.340;2023-04-08T03:57:34;25.83;;;23.00;;
27728;SDS011;15126;42.186;24.340;2023-04-08T04:00:02;27.67;;;23.90;;
27728;SDS011;15126;42.186;24.340;2023-04-08T04:02:30;26.40;;;23.83;;
27728;SDS011;15126;42.186;24.340;2023-04-08T04:04:56;28.50;;;25.60;;
27728;SDS011;15126;42.186;24.340;2023-04-08T04:07:23;27.70;;;24.83;;
27728;SDS011;15126;42.186;24.340;2023-04-08T04:09:50;28.33;;;25.30;;
27728;SDS011;15126;42.186;24.340;2023-04-08T04:12:20;36.83;;;25.63;;
27728;SDS011;15126;42.186;24.340;2023-04-08T04:14:47;27.47;;;24.67;;
27728;SDS011;15126;42.186;24.340;2023-04-08T04:17:15;29.37;;;25.50;;
27728;SDS011;15126;42.186;24.340;2023-04-08T04:19:42;26.50;;;23.50;;
27728;SDS011;15126;42.186;24.340;2023-04-08T04:22:09;32.70;;;27.23;;
27728;SDS011;15126;42.186;24.340;2023-04-08T04:24:35;31.40;;;25.13;;
27728;SDS011;15126;42.186;24.340;2023-04-08T04:27:02;29.50;;;25.43;;
27728;SDS011;15126;42.186;24.340;2023-04-08T04:29:29;28.90;;;25.87;;
27728;SDS011;15126;42.186;24.340;2023-04-08T04:31:56;29.43;;;26.43;;
27728;SDS011;15126;42.186;24.340;2023-04-08T04:34:25;28.60;;;25.60;;
27728;SDS011;15126;42.186;24.340;2023-04-08T04:36:51;35.00;;;25.77;;
27728;SDS011;15126;42.186;24.340;2023-04-08T04:39:18;31.00;;;27.77;;
27728;SDS011;15126;42.186;24.340;2023-04-08T04:41:45;30.20;;;26.17;;
27728;SDS011;15126;42.186;24.340;2023-04-08T04:44:13;36.50;;;30.87;;
27728;SDS011;15126;42.186;24.340;2023-04-08T04:46:40;31.33;;;28.13;;
27728;SDS011;15126;42.186;24.340;2023-04-08T04:49:06;33.43;;;27.57;;
27728;SDS011;15126;42.186;24.340;2023-04-08T04:51:35;30.50;;;27.37;;
27728;SDS011;15126;42.186;24.340;2023-04-08T04:54:02;32.73;;;28.50;;
27728;SDS011;15126;42.186;24.340;2023-04-08T04:56:28;34.53;;;29.83;;
27728;SDS011;15126;42.186;24.340;2023-04-08T04:58:55;31.93;;;28.70;;
27728;SDS011;15126;42.186;24.340;2023-04-08T05:01:22;31.33;;;27.97;;
27728;SDS011;15126;42.186;24.340;2023-04-08T05:03:49;30.40;;;27.13;;
27728;SDS011;15126;42.186;24.340;2023-04-08T05:06:16;32.67;;;29.33;;
27728;SDS011;15126;42.186;24.340;2023-04-08T05:08:44;33.67;;;28.10;;
27728;SDS011;15126;42.186;24.340;2023-04-08T05:11:11;33.70;;;30.23;;
27728;SDS011;15126;42.186;24.340;2023-04-08T05:13:38;32.67;;;29.27;;
27728;SDS011;15126;42.186;24.340;2023-04-08T05:16:05;34.00;;;29.90;;
27728;SDS011;15126;42.186;24.340;2023-04-08T05:18:32;33.90;;;30.30;;
27728;SDS011;15126;42.186;24.340;2023-04-08T05:21:00;32.47;;;28.17;;
27728;SDS011;15126;42.186;24.340;2023-04-08T05:23:27;44.70;;;34.47;;
27728;SDS011;15126;42.186;24.340;2023-04-08T05:25:55;36.67;;;31.70;;
27728;SDS011;15126;42.186;24.340;2023-04-08T05:28:22;32.63;;;29.33;;
27728;SDS011;15126;42.186;24.340;2023-04-08T05:30:49;32.50;;;29.00;;
27728;SDS011;15126;42.186;24.340;2023-04-08T05:33:16;32.07;;;28.60;;
27728;SDS011;15126;42.186;24.340;2023-04-08T05:35:43;33.40;;;29.80;;
27728;SDS011;15126;42.186;24.340;2023-04-08T05:38:10;33.00;;;28.83;;
27728;SDS011;15126;42.186;24.340;2023-04-08T05:40:37;31.03;;;28.10;;
27728;SDS011;15126;42.186;24.340;2023-04-08T05:43:05;33.87;;;30.20;;
27728;SDS011;15126;42.186;24.340;2023-04-08T05:45:32;33.10;;;29.83;;
27728;SDS011;15126;42.186;24.340;2023-04-08T05:47:59;33.27;;;28.53;;
27728;SDS011;15126;42.186;24.340;2023-04-08T05:50:26;34.73;;;31.07;;
27728;SDS011;15126;42.186;24.340;2023-04-08T05:52:53;33.77;;;30.40;;
27728;SDS011;15126;42.186;24.340;2023-04-08T05:55:20;33.90;;;30.27;;
27728;SDS011;15126;42.186;24.340;2023-04-08T05:57:47;34.50;;;30.30;;
27728;SDS011;15126;42.186;24.340;2023-04-08T06:00:15;33.73;;;30.40;;
27728;SDS011;15126;42.186;24.340;2023-04-08T06:02:44;34.07;;;30.57;;
27728;SDS011;15126;42.186;24.340;2023-04-08T06:05:11;33.47;;;30.00;;
27728;SDS011;15126;42.186;24.340;2023-04-08T06:07:37;38.67;;;32.83;;
27728;SDS011;15126;42.186;24.340;2023-04-08T06:10:05;37.13;;;31.97;;
27728;SDS011;15126;42.186;24.340;2023-04-08T06:12:34;40.80;;;30.40;;
27728;SDS011;15126;42.186;24.340;2023-04-08T06:15:06;36.97;;;29.93;;
27728;SDS011;15126;42.186;24.340;2023-04-08T06:17:36;35.27;;;31.57;;
27728;SDS011;15126;42.186;24.340;2023-04-08T06:20:03;44.27;;;36.20;;
27728;SDS011;15126;42.186;24.340;2023-04-08T06:22:31;34.27;;;30.60;;
27728;SDS011;15126;42.186;24.340;2023-04-08T06:24:58;34.87;;;31.17;;
27728;SDS011;15126;42.186;24.340;2023-04-08T06:27:25;36.73;;;30.87;;
27728;SDS011;15126;42.186;24.340;2023-04-08T06:29:51;37.23;;;30.77;;
27728;SDS011;15126;42.186;24.340;2023-04-08T06:32:19;34.97;;;31.10;;
27728;SDS011;15126;42.186;24.340;2023-04-08T06:34:47;33.60;;;29.93;;
27728;SDS011;15126;42.186;24.340;2023-04-08T06:37:14;34.33;;;30.83;;
27728;SDS011;15126;42.186;24.340;2023-04-08T06:39:41;33.63;;;30.03;;
27728;SDS011;15126;42.186;24.340;2023-04-08T06:42:08;32.53;;;29.33;;
27728;SDS011;15126;42.186;24.340;2023-04-08T06:44:35;34.33;;;30.63;;
27728;SDS011;15126;42.186;24.340;2023-04-08T06:47:02;37.97;;;31.20;;
27728;SDS011;15126;42.186;24.340;2023-04-08T06:49:29;34.10;;;30.23;;
27728;SDS011;15126;42.186;24.340;2023-04-08T06:51:57;39.47;;;32.70;;
27728;SDS011;15126;42.186;24.340;2023-04-08T06:54:24;36.93;;;33.07;;
27728;SDS011;15126;42.186;24.340;2023-04-08T06:56:51;40.50;;;33.20;;
27728;SDS011;15126;42.186;24.340;2023-04-08T06:59:17;36.87;;;33.13;;
27728;SDS011;15126;42.186;24.340;2023-04-08T07:01:44;37.10;;;31.57;;
27728;SDS011;15126;42.186;24.340;2023-04-08T07:04:11;35.80;;;32.00;;
27728;SDS011;15126;42.186;24.340;2023-04-08T07:06:38;37.90;;;34.00;;
27728;SDS011;15126;42.186;24.340;2023-04-08T07:09:06;51.20;;;40.73;;
27728;SDS011;15126;42.186;24.340;2023-04-08T07:11:33;37.10;;;33.30;;
27728;SDS011;15126;42.186;24.340;2023-04-08T07:14:00;37.80;;;33.77;;
27728;SDS011;15126;42.186;24.340;2023-04-08T07:16:27;39.73;;;34.67;;
27728;SDS011;15126;42.186;24.340;2023-04-08T07:18:53;35.70;;;32.07;;
27728;SDS011;15126;42.186;24.340;2023-04-08T07:21:21;45.03;;;36.13;;
27728;SDS011;15126;42.186;24.340;2023-04-08T07:23:47;39.60;;;35.40;;
27728;SDS011;15126;42.186;24.340;2023-04-08T07:26:16;36.90;;;33.30;;
27728;SDS011;15126;42.186;24.340;2023-04-08T07:28:43;38.43;;;34.33;;
27728;SDS011;15126;42.186;24.340;2023-04-08T07:31:10;38.77;;;34.70;;
27728;SDS011;15126;42.186;24.340;2023-04-08T07:33:39;40.83;;;36.43;;
27728;SDS011;15126;42.186;24.340;2023-04-08T07:36:05;40.20;;;35.63;;
27728;SDS011;15126;42.186;24.340;2023-04-08T07:38:33;40.53;;;36.47;;
27728;SDS011;15126;42.186;24.340;2023-04-08T07:41:00;42.33;;;38.00;;
27728;SDS011;15126;42.186;24.340;2023-04-08T07:43:29;36.73;;;33.10;;
27728;SDS011;15126;42.186;24.340;2023-04-08T07:45:58;39.37;;;35.40;;
27728;SDS011;15126;42.186;24.340;2023-04-08T07:48:27;39.60;;;35.37;;
27728;SDS011;15126;42.186;24.340;2023-04-08T07:50:54;39.30;;;35.27;;
27728;SDS011;15126;42.186;24.340;2023-04-08T07:53:21;40.53;;;36.30;;
27728;SDS011;15126;42.186;24.340;2023-04-08T07:55:50;38.43;;;34.70;;
27728;SDS011;15126;42.186;24.340;2023-04-08T07:58:17;38.30;;;34.47;;
27728;SDS011;15126;42.186;24.340;2023-04-08T08:00:45;40.83;;;36.47;;
27728;SDS011;15126;42.186;24.340;2023-04-08T08:03:12;38.57;;;31.67;;
27728;SDS011;15126;42.186;24.340;2023-04-08T08:05:39;34.03;;;30.43;;
27728;SDS011;15126;42.186;24.340;2023-04-08T08:08:05;32.17;;;28.83;;
27728;SDS011;15126;42.186;24.340;2023-04-08T08:10:35;32.87;;;29.60;;
27728;SDS011;15126;42.186;24.340;2023-04-08T08:13:02;33.40;;;29.80;;
27728;SDS011;15126;42.186;24.340;2023-04-08T08:15:29;35.53;;;31.93;;
27728;SDS011;15126;42.186;24.340;2023-04-08T08:17:57;35.97;;;30.33;;
27728;SDS011;15126;42.186;24.340;2023-04-08T08:20:24;36.93;;;32.27;;
27728;SDS011;15126;42.186;24.340;2023-04-08T08:22:51;34.53;;;30.87;;
27728;SDS011;15126;42.186;24.340;2023-04-08T08:25:18;34.80;;;31.03;;
27728;SDS011;15126;42.186;24.340;2023-04-08T08:27:44;42.17;;;35.27;;
27728;SDS011;15126;42.186;24.340;2023-04-08T08:30:11;36.57;;;32.47;;
27728;SDS011;15126;42.186;24.340;2023-04-08T08:32:38;50.30;;;40.40;;
27728;SDS011;15126;42.186;24.340;2023-04-08T08:35:07;36.80;;;33.10;;
27728;SDS011;15126;42.186;24.340;2023-04-08T08:37:34;37.93;;;33.70;;
27728;SDS011;15126;42.186;24.340;2023-04-08T08:40:01;36.33;;;30.90;;
27728;SDS011;15126;42.186;24.340;2023-04-08T08:42:31;31.60;;;28.30;;
27728;SDS011;15126;42.186;24.340;2023-04-08T08:44:59;32.33;;;28.83;;
27728;SDS011;15126;42.186;24.340;2023-04-08T08:47:27;33.20;;;29.83;;
27728;SDS011;15126;42.186;24.340;2023-04-08T08:49:54;31.70;;;28.53;;
27728;SDS011;15126;42.186;24.340;2023-04-08T08:52:22;34.17;;;30.47;;
27728;SDS011;15126;42.186;24.340;2023-04-08T08:54:55;32.00;;;28.63;;
27728;SDS011;15126;42.186;24.340;2023-04-08T08:57:23;29.27;;;26.47;;
27728;SDS011;15126;42.186;24.340;2023-04-08T08:59:51;30.60;;;27.67;;
27728;SDS011;15126;42.186;24.340;2023-04-08T09:02:24;32.83;;;29.43;;
27728;SDS011;15126;42.186;24.340;2023-04-08T09:04:56;30.57;;;27.43;;
27728;SDS011;15126;42.186;24.340;2023-04-08T09:07:26;31.57;;;28.13;;
27728;SDS011;15126;42.186;24.340;2023-04-08T09:09:54;33.27;;;29.73;;
27728;SDS011;15126;42.186;24.340;2023-04-08T09:12:22;29.23;;;26.43;;
27728;SDS011;15126;42.186;24.340;2023-04-08T09:15:01;31.20;;;27.40;;
27728;SDS011;15126;42.186;24.340;2023-04-08T09:17:32;29.67;;;26.77;;
27728;SDS011;15126;42.186;24.340;2023-04-08T09:20:03;31.00;;;27.60;;
27728;SDS011;15126;42.186;24.340;2023-04-08T09:22:35;28.93;;;25.63;;
27728;SDS011;15126;42.186;24.340;2023-04-08T09:25:24;33.13;;;29.67;;
27728;SDS011;15126;42.186;24.340;2023-04-08T09:27:51;28.93;;;25.67;;
27728;SDS011;15126;42.186;24.340;2023-04-08T09:30:19;28.17;;;25.33;;
27728;SDS011;15126;42.186;24.340;2023-04-08T09:32:47;29.30;;;26.37;;
27728;SDS011;15126;42.186;24.340;2023-04-08T09:35:15;26.87;;;24.13;;
27728;SDS011;15126;42.186;24.340;2023-04-08T09:37:44;28.77;;;25.77;;
27728;SDS011;15126;42.186;24.340;2023-04-08T09:40:12;27.87;;;24.83;;
27728;SDS011;15126;42.186;24.340;2023-04-08T09:42:40;30.13;;;26.67;;
27728;SDS011;15126;42.186;24.340;2023-04-08T09:45:11;29.43;;;26.63;;
27728;SDS011;15126;42.186;24.340;2023-04-08T09:47:41;25.00;;;22.63;;
27728;SDS011;15126;42.186;24.340;2023-04-08T09:50:18;25.00;;;22.50;;
27728;SDS011;15126;42.186;24.340;2023-04-08T09:52:51;27.23;;;24.53;;
27728;SDS011;15126;42.186;24.340;2023-04-08T09:55:22;24.50;;;22.13;;
27728;SDS011;15126;42.186;24.340;2023-04-08T09:57:54;33.47;;;29.90;;
27728;SDS011;15126;42.186;24.340;2023-04-08T10:00:27;32.50;;;29.10;;
27728;SDS011;15126;42.186;24.340;2023-04-08T10:02:59;74.70;;;59.37;;
27728;SDS011;15126;42.186;24.340;2023-04-08T10:05:30;28.17;;;25.27;;
27728;SDS011;15126;42.186;24.340;2023-04-08T10:08:01;25.63;;;23.10;;
27728;SDS011;15126;42.186;24.340;2023-04-08T10:10:29;25.00;;;22.33;;
27728;SDS011;15126;42.186;24.340;2023-04-08T10:12:56;27.93;;;22.53;;
27728;SDS011;15126;42.186;24.340;2023-04-08T10:15:24;26.40;;;23.80;;
27728;SDS011;15126;42.186;24.340;2023-04-08T10:17:51;29.30;;;26.27;;
27728;SDS011;15126;42.186;24.340;2023-04-08T10:23:17;34.23;;;30.73;;
27728;SDS011;15126;42.186;24.340;2023-04-08T10:25:45;29.10;;;26.10;;
27728;SDS011;15126;42.186;24.340;2023-04-08T10:28:22;26.77;;;24.07;;
27728;SDS011;15126;42.186;24.340;2023-04-08T10:30:50;25.23;;;22.50;;
27728;SDS011;15126;42.186;24.340;2023-04-08T10:33:17;24.53;;;22.03;;
27728;SDS011;15126;42.186;24.340;2023-04-08T10:35:49;23.37;;;21.00;;
27728;SDS011;15126;42.186;24.340;2023-04-08T10:38:20;25.13;;;22.83;;
27728;SDS011;15126;42.186;24.340;2023-04-08T10:40:47;25.03;;;22.53;;
27728;SDS011;15126;42.186;24.340;2023-04-08T10:43:15;24.20;;;21.83;;
27728;SDS011;15126;42.186;24.340;2023-04-08T10:45:43;24.33;;;22.00;;
27728;SDS011;15126;42.186;24.340;2023-04-08T10:48:10;26.07;;;23.37;;
27728;SDS011;15126;42.186;24.340;2023-04-08T10:50:41;23.10;;;20.90;;
27728;SDS011;15126;42.186;24.340;2023-04-08T10:53:09;23.87;;;21.47;;
27728;SDS011;15126;42.186;24.340;2023-04-08T10:55:37;23.20;;;21.07;;
27728;SDS011;15126;42.186;24.340;2023-04-08T10:58:05;23.83;;;21.73;;
27728;SDS011;15126;42.186;24.340;2023-04-08T11:00:33;25.63;;;23.13;;
27728;SDS011;15126;42.186;24.340;2023-04-08T11:03:02;27.30;;;24.50;;
27728;SDS011;15126;42.186;24.340;2023-04-08T11:05:30;39.37;;;31.93;;
27728;SDS011;15126;42.186;24.340;2023-04-08T11:07:57;29.80;;;26.67;;
27728;SDS011;15126;42.186;24.340;2023-04-08T11:10:24;26.97;;;24.43;;
27728;SDS011;15126;42.186;24.340;2023-04-08T11:12:54;24.70;;;22.40;;
27728;SDS011;15126;42.186;24.340;2023-04-08T11:15:21;35.63;;;31.83;;
27728;SDS011;15126;42.186;24.340;2023-04-08T11:17:50;25.90;;;23.40;;
27728;SDS011;15126;42.186;24.340;2023-04-08T11:20:17;27.40;;;24.60;;
27728;SDS011;15126;42.186;24.340;2023-04-08T11:22:44;28.53;;;25.57;;
27728;SDS011;15126;42.186;24.340;2023-04-08T11:25:12;26.20;;;23.50;;
27728;SDS011;15126;42.186;24.340;2023-04-08T11:27:40;29.87;;;26.80;;
27728;SDS011;15126;42.186;24.340;2023-04-08T11:30:08;28.50;;;25.77;;
27728;SDS011;15126;42.186;24.340;2023-04-08T11:32:36;28.80;;;25.90;;
27728;SDS011;15126;42.186;24.340;2023-04-08T11:35:04;25.17;;;22.87;;
27728;SDS011;15126;42.186;24.340;2023-04-08T11:37:35;26.30;;;23.50;;
27728;SDS011;15126;42.186;24.340;2023-04-08T11:40:05;26.83;;;24.10;;
27728;SDS011;15126;42.186;24.340;2023-04-08T11:42:33;26.23;;;23.83;;
27728;SDS011;15126;42.186;24.340;2023-04-08T11:45:00;30.60;;;27.60;;
27728;SDS011;15126;42.186;24.340;2023-04-08T11:47:33;28.07;;;25.57;;
27728;SDS011;15126;42.186;24.340;2023-04-08T11:50:00;26.37;;;23.57;;
27728;SDS011;15126;42.186;24.340;2023-04-08T11:52:39;26.17;;;23.73;;
27728;SDS011;15126;42.186;24.340;2023-04-08T11:55:07;31.03;;;27.83;;
27728;SDS011;15126;42.186;24.340;2023-04-08T11:57:35;35.37;;;31.93;;
27728;SDS011;15126;42.186;24.340;2023-04-08T12:00:02;30.23;;;27.43;;
27728;SDS011;15126;42.186;24.340;2023-04-08T12:02:30;28.23;;;25.47;;
27728;SDS011;15126;42.186;24.340;2023-04-08T12:04:59;25.77;;;23.53;;
27728;SDS011;15126;42.186;24.340;2023-04-08T12:07:27;27.53;;;24.93;;
27728;SDS011;15126;42.186;24.340;2023-04-08T12:09:53;34.07;;;30.83;;
27728;SDS011;15126;42.186;24.340;2023-04-08T12:12:20;27.93;;;25.13;;
27728;SDS011;15126;42.186;24.340;2023-04-08T12:14:47;28.47;;;25.80;;
27728;SDS011;15126;42.186;24.340;2023-04-08T12:17:14;29.37;;;26.60;;
27728;SDS011;15126;42.186;24.340;2023-04-08T12:19:42;39.53;;;35.53;;
27728;SDS011;15126;42.186;24.340;2023-04-08T12:22:09;31.57;;;28.57;;
27728;SDS011;15126;42.186;24.340;2023-04-08T12:24:36;30.67;;;27.60;;
27728;SDS011;15126;42.186;24.340;2023-04-08T12:27:03;30.47;;;27.33;;
27728;SDS011;15126;42.186;24.340;2023-04-08T12:29:30;30.17;;;26.13;;
27728;SDS011;15126;42.186;24.340;2023-04-08T12:31:57;28.50;;;25.20;;
27728;SDS011;15126;42.186;24.340;2023-04-08T12:34:24;28.70;;;25.97;;
27728;SDS011;15126;42.186;24.340;2023-04-08T12:36:52;28.90;;;26.17;;
27728;SDS011;15126;42.186;24.340;2023-04-08T12:39:19;26.53;;;23.93;;
27728;SDS011;15126;42.186;24.340;2023-04-08T12:41:46;26.63;;;24.13;;
27728;SDS011;15126;42.186;24.340;2023-04-08T12:44:13;25.00;;;22.40;;
27728;SDS011;15126;42.186;24.340;2023-04-08T12:46:40;25.83;;;23.30;;
27728;SDS011;15126;42.186;24.340;2023-04-08T12:49:06;26.30;;;23.93;;
27728;SDS011;15126;42.186;24.340;2023-04-08T12:51:33;25.20;;;22.77;;
27728;SDS011;15126;42.186;24.340;2023-04-08T12:54:02;24.50;;;22.33;;
27728;SDS011;15126;42.186;24.340;2023-04-08T12:56:29;26.70;;;24.10;;
27728;SDS011;15126;42.186;24.340;2023-04-08T12:58:57;25.63;;;23.23;;
27728;SDS011;15126;42.186;24.340;2023-04-08T13:01:23;25.10;;;22.80;;
27728;SDS011;15126;42.186;24.340;2023-04-08T13:03:50;26.53;;;23.70;;
27728;SDS011;15126;42.186;24.340;2023-04-08T13:06:17;27.57;;;25.03;;
27728;SDS011;15126;42.186;24.340;2023-04-08T13:08:43;26.53;;;23.87;;
27728;SDS011;15126;42.186;24.340;2023-04-08T13:11:12;34.20;;;24.00;;
27728;SDS011;15126;42.186;24.340;2023-04-08T13:13:39;26.53;;;24.13;;
27728;SDS011;15126;42.186;24.340;2023-04-08T13:16:06;37.83;;;24.50;;
27728;SDS011;15126;42.186;24.340;2023-04-08T13:18:33;24.03;;;21.70;;
27728;SDS011;15126;42.186;24.340;2023-04-08T13:21:00;26.33;;;23.83;;
27728;SDS011;15126;42.186;24.340;2023-04-08T13:23:27;25.87;;;23.57;;
27728;SDS011;15126;42.186;24.340;2023-04-08T13:25:54;26.73;;;24.23;;
27728;SDS011;15126;42.186;24.340;2023-04-08T13:28:22;26.03;;;23.53;;
27728;SDS011;15126;42.186;24.340;2023-04-08T13:30:49;25.00;;;22.70;;
27728;SDS011;15126;42.186;24.340;2023-04-08T13:33:15;25.20;;;22.87;;
27728;SDS011;15126;42.186;24.340;2023-04-08T13:35:42;25.03;;;22.53;;
27728;SDS011;15126;42.186;24.340;2023-04-08T13:38:09;24.43;;;21.97;;
27728;SDS011;15126;42.186;24.340;2023-04-08T13:40:36;25.67;;;23.17;;
27728;SDS011;15126;42.186;24.340;2023-04-08T13:43:03;25.20;;;22.80;;
27728;SDS011;15126;42.186;24.340;2023-04-08T13:45:32;27.93;;;25.43;;
27728;SDS011;15126;42.186;24.340;2023-04-08T13:47:59;23.20;;;21.17;;
27728;SDS011;15126;42.186;24.340;2023-04-08T13:50:25;24.17;;;21.87;;
27728;SDS011;15126;42.186;24.340;2023-04-08T13:52:52;24.00;;;21.73;;
27728;SDS011;15126;42.186;24.340;2023-04-08T13:55:19;22.80;;;20.43;;
27728;SDS011;15126;42.186;24.340;2023-04-08T13:57:46;33.53;;;30.03;;
27728;SDS011;15126;42.186;24.340;2023-04-08T14:00:13;20.97;;;18.83;;
27728;SDS011;15126;42.186;24.340;2023-04-08T14:02:42;18.70;;;16.87;;
27728;SDS011;15126;42.186;24.340;2023-04-08T14:05:08;19.23;;;17.33;;
27728;SDS011;15126;42.186;24.340;2023-04-08T14:07:35;18.87;;;16.93;;
27728;SDS011;15126;42.186;24.340;2023-04-08T14:10:02;20.03;;;18.33;;
27728;SDS011;15126;42.186;24.340;2023-04-08T14:12:30;18.97;;;17.17;;
27728;SDS011;15126;42.186;24.340;2023-04-08T14:14:57;21.80;;;19.80;;